English version
lugares datos climáticos artículos

datos de Mairena del Aljarafe, Sevilla, España
Año Mes Dia Mostrar

  Fecha       hora        Temp.ext.    Hum.ext.  Dir.Viento   Vel.Viento  Presion al NM   T.int. Prec.hoy 

   28-05-2024    13:30      28.6º(-0.3)     42%      270 (W)      1.6 km/h    1016.3 hpa     28.3º    0.0 mm
   28-05-2024    13:25      28.4º(-0.4)     43%      270 (W)      6.4 km/h    1016.5 hpa     28.3º    0.0 mm
   28-05-2024    13:20      28.3º(-0.6)     44%      270 (W)      1.6 km/h    1016.5 hpa     28.3º    0.0 mm
   28-05-2024    13:15      27.8º(-1.0)     45%      247(SW)      3.2 km/h    1016.6 hpa     28.3º    0.0 mm
   28-05-2024    13:10      27.7º(-0.9)     48%      270 (W)      3.2 km/h    1016.6 hpa     28.3º    0.0 mm
   28-05-2024    13:05      27.6º(-1.0)     48%      270 (W)      3.2 km/h    1016.6 hpa     28.3º    0.0 mm
   28-05-2024    13:00      27.5º(-1.0)     47%      270 (W)      3.2 km/h    1016.6 hpa     28.3º    0.0 mm
   28-05-2024    12:55      27.4º(-0.9)     48%      270 (W)      4.8 km/h    1016.7 hpa     28.2º    0.0 mm
   28-05-2024    12:50      27.1º(-1.2)     49%      247(SW)      3.2 km/h    1016.8 hpa     28.2º    0.0 mm
   28-05-2024    12:45      26.8º(-1.4)     50%      247(SW)      1.6 km/h    1016.9 hpa     28.2º    0.0 mm
   28-05-2024    12:40      26.7º(-1.6)     50%      247(SW)      3.2 km/h    1016.9 hpa     28.2º    0.0 mm
   28-05-2024    12:35      26.7º(-1.5)     51%      247(SW)      3.2 km/h    1017.0 hpa     28.2º    0.0 mm
   28-05-2024    12:30      26.5º(-1.2)     51%      247(SW)      4.8 km/h    1016.8 hpa     28.2º    0.0 mm
   28-05-2024    12:25      26.3º(-1.3)     53%      247(SW)      1.6 km/h    1016.9 hpa     28.1º    0.0 mm
   28-05-2024    12:20      26.0º(-1.6)     54%      247(SW)      1.6 km/h    1017.0 hpa     28.1º    0.0 mm
   28-05-2024    12:15      25.8º(-1.6)     54%      270 (W)      6.4 km/h    1016.9 hpa     28.1º    0.0 mm
   28-05-2024    12:10      25.8º(-1.3)     53%      292 (W)      4.8 km/h    1016.8 hpa     28.1º    0.0 mm
   28-05-2024    12:05      25.9º(-1.0)     54%      292 (W)      1.6 km/h    1016.9 hpa     28.1º    0.0 mm
   28-05-2024    12:00      25.7º(-1.1)     54%      247(SW)      3.2 km/h    1016.9 hpa     27.9º    0.0 mm
   28-05-2024    11:55      25.6º(-1.1)     54%      270 (W)      3.2 km/h    1017.0 hpa     27.9º    0.0 mm
   28-05-2024    11:50      25.4º(-1.3)     56%      225(SW)      1.6 km/h    1017.0 hpa     27.9º    0.0 mm
   28-05-2024    11:45      25.4º(-1.4)     55%      202 (S)      1.6 km/h    1017.1 hpa     27.9º    0.0 mm
   28-05-2024    11:40      25.1º(-1.7)     57%      180 (S)      1.6 km/h    1017.1 hpa     27.9º    0.0 mm
   28-05-2024    11:35      24.7º(-2.3)     58%      202 (S)      1.6 km/h    1017.1 hpa     27.9º    0.0 mm
   28-05-2024    11:30      24.6º(-2.1)     58%      202 (S)      3.2 km/h    1017.2 hpa     27.9º    0.0 mm
   28-05-2024    11:25      24.3º(-2.0)     59%      225(SW)      1.6 km/h    1017.2 hpa     27.9º    0.0 mm
   28-05-2024    11:20      24.3º(-2.0)     59%      247(SW)      1.6 km/h    1017.2 hpa     27.9º    0.0 mm
   28-05-2024    11:15      24.1º(-2.3)     59%      225(SW)      3.2 km/h    1017.1 hpa     27.9º    0.0 mm
   28-05-2024    11:10      24.1º(-2.9)     60%      225(SW)      1.6 km/h    1017.1 hpa     27.9º    0.0 mm
   28-05-2024    11:05      24.1º(-2.5)     60%      247(SW)      3.2 km/h    1017.1 hpa     27.8º    0.0 mm
   28-05-2024    11:00      23.9º(-2.4)     63%         -         0.0 km/h    1017.2 hpa     27.8º    0.0 mm
   28-05-2024    10:55      23.7º(-2.6)     62%      270 (W)      3.2 km/h    1017.1 hpa     27.8º    0.0 mm
   28-05-2024    10:50      23.8º(-2.4)     62%      247(SW)      1.6 km/h    1017.1 hpa     27.8º    0.0 mm
   28-05-2024    10:45      23.7º(-2.3)     64%      247(SW)      1.6 km/h    1017.1 hpa     27.8º    0.0 mm
   28-05-2024    10:40      23.5º(-2.3)     64%      270 (W)      1.6 km/h    1017.1 hpa     27.8º    0.0 mm
   28-05-2024    10:35      23.3º(-2.1)     64%      270 (W)      1.6 km/h    1017.1 hpa     27.8º    0.0 mm
   28-05-2024    10:30      23.4º(-1.7)     63%      247(SW)      3.2 km/h    1017.0 hpa     27.8º    0.0 mm
   28-05-2024    10:25      23.3º(-1.5)     64%      247(SW)      1.6 km/h    1017.0 hpa     27.7º    0.0 mm
   28-05-2024    10:20      23.2º(-1.4)     64%      247(SW)      1.6 km/h    1017.0 hpa     27.7º    0.0 mm
   28-05-2024    10:15      22.9º(-1.4)     65%         -         0.0 km/h    1017.0 hpa     27.7º    0.0 mm
   28-05-2024    10:10      22.3º(-1.6)     67%      247(SW)      1.6 km/h    1017.0 hpa     27.6º    0.0 mm
   28-05-2024    10:05      22.2º(-1.6)     67%      247(SW)      1.6 km/h    1017.0 hpa     27.6º    0.0 mm
   28-05-2024    10:00      22.1º(-2.1)     67%      247(SW)      1.6 km/h    1017.0 hpa     27.6º    0.0 mm
   28-05-2024    09:55      22.2º(-2.2)     67%      292 (W)      3.2 km/h    1017.0 hpa     27.4º    0.0 mm
   28-05-2024    09:50      22.0º(-2.2)     68%      292 (W)      1.6 km/h    1017.0 hpa     27.4º    0.0 mm
   28-05-2024    09:45      21.7º(-2.1)     69%      270 (W)      1.6 km/h    1016.9 hpa     27.4º    0.0 mm
   28-05-2024    09:40      21.3º(-2.1)     70%      270 (W)      3.2 km/h    1016.7 hpa     27.3º    0.0 mm
   28-05-2024    09:35      21.1º(-2.3)     69%      292 (W)      4.8 km/h    1016.7 hpa     27.3º    0.0 mm
   28-05-2024    09:30      20.9º(-2.3)     70%      292 (W)      1.6 km/h    1016.7 hpa     27.3º    0.0 mm
   28-05-2024    09:25      20.8º(-2.4)     70%      247(SW)      3.2 km/h    1016.7 hpa     27.2º    0.0 mm
   28-05-2024    09:20      20.9º(-2.2)     69%      270 (W)      3.2 km/h    1016.7 hpa     27.1º    0.0 mm
   28-05-2024    09:15      21.1º(-1.7)     67%      270 (W)      4.8 km/h    1016.6 hpa     27.1º    0.0 mm
   28-05-2024    09:10      21.4º(-1.3)     62%      247(SW)      3.2 km/h    1016.6 hpa     27.0º    0.0 mm
   28-05-2024    09:05      21.7º(-1.0)     58%      247(SW)      1.6 km/h    1016.6 hpa     27.0º    0.0 mm
   28-05-2024    09:00      21.7º(-0.9)     55%         -         0.0 km/h    1016.5 hpa     27.0º    0.0 mm
   28-05-2024    08:55      21.6º(-0.8)     55%         -         0.0 km/h    1016.4 hpa     26.9º    0.0 mm
   28-05-2024    08:50      21.4º(-0.9)     56%         -         0.0 km/h    1016.5 hpa     26.9º    0.0 mm
   28-05-2024    08:45      21.3º(-0.9)     56%         -         0.0 km/h    1016.4 hpa     26.9º    0.0 mm
   28-05-2024    08:40      21.3º(-1.0)     55%         -         0.0 km/h    1016.4 hpa     26.9º    0.0 mm
   28-05-2024    08:35      21.2º(-0.9)     58%         -         0.0 km/h    1016.4 hpa     26.8º    0.0 mm
   28-05-2024    08:30      20.8º(-1.3)     60%         -         0.0 km/h    1016.4 hpa     26.8º    0.0 mm
   28-05-2024    08:25      20.5º(-1.3)     59%         -         0.0 km/h    1016.4 hpa     26.8º    0.0 mm
   28-05-2024    08:20      20.3º(-1.4)     62%         -         0.0 km/h    1016.3 hpa     26.8º    0.0 mm
   28-05-2024    08:15      19.9º(-1.5)     64%         -         0.0 km/h    1016.3 hpa     26.8º    0.0 mm
   28-05-2024    08:10      19.6º(-1.5)     65%         -         0.0 km/h    1016.3 hpa     26.7º    0.0 mm
   28-05-2024    08:05      19.2º(-1.7)     66%         -         0.0 km/h    1016.2 hpa     26.7º    0.0 mm
   28-05-2024    08:00      18.9º(-1.8)     66%         -         0.0 km/h    1016.1 hpa     26.6º    0.0 mm
   28-05-2024    07:55      18.7º(-1.9)     69%         -         0.0 km/h    1016.0 hpa     26.6º    0.0 mm
   28-05-2024    07:50      18.4º(-2.0)     69%         -         0.0 km/h    1016.0 hpa     26.6º    0.0 mm
   28-05-2024    07:45      18.3º(-2.1)     72%         -         0.0 km/h    1015.9 hpa     26.5º    0.0 mm
   28-05-2024    07:40      18.1º(-2.2)     72%         -         0.0 km/h    1015.8 hpa     26.4º    0.0 mm
   28-05-2024    07:35      17.9º(-2.4)     73%         -         0.0 km/h    1015.7 hpa     26.4º    0.0 mm
   28-05-2024    07:30      17.9º(-2.5)     73%         -         0.0 km/h    1015.7 hpa     26.4º    0.0 mm
   28-05-2024    07:25      17.9º(-2.5)     73%         -         0.0 km/h    1015.6 hpa     26.4º    0.0 mm
   28-05-2024    07:20      17.9º(-2.5)     73%         -         0.0 km/h    1015.5 hpa     26.3º    0.0 mm
   28-05-2024    07:15      17.9º(-2.5)     73%         -         0.0 km/h    1015.5 hpa     26.3º    0.0 mm
   28-05-2024    07:10      17.9º(-2.6)     73%         -         0.0 km/h    1015.5 hpa     26.3º    0.0 mm
   28-05-2024    07:05      17.9º(-2.7)     72%         -         0.0 km/h    1015.5 hpa     26.3º    0.0 mm
   28-05-2024    07:00      17.9º(-2.7)     72%         -         0.0 km/h    1015.5 hpa     26.3º    0.0 mm
   28-05-2024    06:55      17.9º(-2.7)     72%         -         0.0 km/h    1015.4 hpa     26.3º    0.0 mm
   28-05-2024    06:50      17.9º(-2.8)     72%         -         0.0 km/h    1015.4 hpa     26.3º    0.0 mm
   28-05-2024    06:45      18.0º(-2.7)     71%         -         0.0 km/h    1015.4 hpa     26.3º    0.0 mm
   28-05-2024    06:40      18.1º(-2.7)     71%         -         0.0 km/h    1015.3 hpa     26.3º    0.0 mm
   28-05-2024    06:35      18.1º(-2.7)     70%         -         0.0 km/h    1015.3 hpa     26.3º    0.0 mm
   28-05-2024    06:30      18.2º(-2.7)     69%         -         0.0 km/h    1015.3 hpa     26.3º    0.0 mm
   28-05-2024    06:25      18.3º(-2.8)     69%         -         0.0 km/h    1015.2 hpa     26.3º    0.0 mm
   28-05-2024    06:20      18.3º(-2.8)     69%         -         0.0 km/h    1015.3 hpa     26.3º    0.0 mm
   28-05-2024    06:15      18.3º(-2.9)     70%         -         0.0 km/h    1015.2 hpa     26.4º    0.0 mm
   28-05-2024    06:10      18.2º(-3.0)     71%         -         0.0 km/h    1015.3 hpa     26.4º    0.0 mm
   28-05-2024    06:05      18.1º(-3.1)     72%         -         0.0 km/h    1015.3 hpa     26.5º    0.0 mm
   28-05-2024    06:00      18.0º(-3.3)     73%         -         0.0 km/h    1015.3 hpa     26.5º    0.0 mm
   28-05-2024    05:55      17.9º(-3.4)     72%         -         0.0 km/h    1015.4 hpa     26.5º    0.0 mm
   28-05-2024    05:50      17.9º(-3.4)     72%         -         0.0 km/h    1015.4 hpa     26.5º    0.0 mm
   28-05-2024    05:45      17.8º(-3.6)     72%         -         0.0 km/h    1015.3 hpa     26.6º    0.0 mm
   28-05-2024    05:40      17.8º(-3.6)     73%         -         0.0 km/h    1015.4 hpa     26.6º    0.0 mm
   28-05-2024    05:35      17.8º(-3.7)     73%         -         0.0 km/h    1015.3 hpa     26.6º    0.0 mm
   28-05-2024    05:30      17.8º(-3.8)     73%         -         0.0 km/h    1015.2 hpa     26.6º    0.0 mm
   28-05-2024    05:25      17.8º(-3.8)     73%      157(SE)      1.6 km/h    1015.1 hpa     26.6º    0.0 mm
   28-05-2024    05:20      17.8º(-3.9)     73%         -         0.0 km/h    1015.0 hpa     26.6º    0.0 mm
   28-05-2024    05:15      17.9º(-3.8)     73%      157(SE)      1.6 km/h    1015.0 hpa     26.5º    0.0 mm
   28-05-2024    05:10      17.9º(-3.9)     72%         -         0.0 km/h    1015.0 hpa     26.5º    0.0 mm
   28-05-2024    05:05      17.9º(-3.9)     72%      157(SE)      1.6 km/h    1015.0 hpa     26.5º    0.0 mm
   28-05-2024    05:00      17.9º(-4.0)     72%         -         0.0 km/h    1015.0 hpa     26.5º    0.0 mm
   28-05-2024    04:55      17.9º(-4.0)     72%         -         0.0 km/h    1015.1 hpa     26.5º    0.0 mm
   28-05-2024    04:50      17.9º(-4.1)     72%         -         0.0 km/h    1014.9 hpa     26.5º    0.0 mm
   28-05-2024    04:45      18.0º(-4.1)     72%      157(SE)      1.6 km/h    1015.0 hpa     26.5º    0.0 mm
   28-05-2024    04:40      18.1º(-4.0)     71%         -         0.0 km/h    1015.0 hpa     26.5º    0.0 mm
   28-05-2024    04:35      18.1º(-4.0)     71%         -         0.0 km/h    1015.0 hpa     26.5º    0.0 mm
   28-05-2024    04:30      18.2º(-3.9)     71%         -         0.0 km/h    1015.1 hpa     26.5º    0.0 mm
   28-05-2024    04:25      18.2º(-4.0)     72%      157(SE)      1.6 km/h    1015.1 hpa     26.5º    0.0 mm
   28-05-2024    04:20      18.2º(-4.2)     71%         -         0.0 km/h    1015.1 hpa     26.4º    0.0 mm
   28-05-2024    04:15      18.2º(-4.6)     71%         -         0.0 km/h    1015.0 hpa     26.4º    0.0 mm
   28-05-2024    04:10      18.3º(-4.6)     70%         -         0.0 km/h    1015.0 hpa     26.4º    0.0 mm
   28-05-2024    04:05      18.3º(-4.8)     70%         -         0.0 km/h    1015.0 hpa     26.4º    0.0 mm
   28-05-2024    04:00      18.3º(-4.8)     70%         -         0.0 km/h    1015.0 hpa     26.4º    0.0 mm
   28-05-2024    03:55      18.4º(-4.8)     70%         -         0.0 km/h    1015.1 hpa     26.4º    0.0 mm
   28-05-2024    03:50      18.3º(-5.0)     71%         -         0.0 km/h    1015.0 hpa     26.4º    0.0 mm
   28-05-2024    03:45      18.3º(-5.1)     72%         -         0.0 km/h    1015.0 hpa     26.4º    0.0 mm
   28-05-2024    03:40      18.2º(-5.2)     72%         -         0.0 km/h    1014.9 hpa     26.4º    0.0 mm
   28-05-2024    03:35      18.1º(-5.4)     72%         -         0.0 km/h    1015.0 hpa     26.5º    0.0 mm
   28-05-2024    03:30      18.0º(-5.5)     73%         -         0.0 km/h    1015.1 hpa     26.5º    0.0 mm
   28-05-2024    03:25      17.9º(-5.7)     73%         -         0.0 km/h    1015.0 hpa     26.5º    0.0 mm
   28-05-2024    03:20      17.9º(-5.7)     73%      157(SE)      1.6 km/h    1015.0 hpa     26.6º    0.0 mm
   28-05-2024    03:15      18.0º(-5.7)     73%      157(SE)      1.6 km/h    1015.0 hpa     26.6º    0.0 mm
   28-05-2024    03:10      18.1º(-5.6)     73%      157(SE)      1.6 km/h    1015.1 hpa     26.7º    0.0 mm
   28-05-2024    03:05      18.2º(-5.5)     74%         -         0.0 km/h    1015.1 hpa     26.7º    0.0 mm
   28-05-2024    03:00      18.3º(-5.4)     73%      157(SE)      1.6 km/h    1015.1 hpa     26.8º    0.0 mm
   28-05-2024    02:55      18.8º(-5.0)     71%      157(SE)      1.6 km/h    1015.0 hpa     26.9º    0.0 mm
   28-05-2024    02:50      18.9º(-4.9)     71%         -         0.0 km/h    1015.0 hpa     26.9º    0.0 mm
   28-05-2024    02:45      18.9º(-4.9)     71%         -         0.0 km/h    1015.0 hpa     26.9º    0.0 mm
   28-05-2024    02:40      18.8º(-5.0)     72%         -         0.0 km/h    1014.9 hpa     26.9º    0.0 mm
   28-05-2024    02:35      18.7º(-5.2)     72%         -         0.0 km/h    1014.9 hpa     26.9º    0.0 mm
   28-05-2024    02:30      18.6º(-5.3)     72%         -         0.0 km/h    1014.9 hpa     27.0º    0.0 mm
   28-05-2024    02:25      18.4º(-5.6)     73%         -         0.0 km/h    1014.9 hpa     26.9º    0.0 mm
   28-05-2024    02:20      18.4º(-5.7)     73%         -         0.0 km/h    1014.9 hpa     26.9º    0.0 mm
   28-05-2024    02:15      18.3º(-5.8)     73%         -         0.0 km/h    1014.9 hpa     26.9º    0.0 mm
   28-05-2024    02:10      18.2º(-6.0)     73%         -         0.0 km/h    1014.9 hpa     26.8º    0.0 mm
   28-05-2024    02:05      18.2º(-6.0)     73%         -         0.0 km/h    1015.0 hpa     26.8º    0.0 mm
   28-05-2024    02:00      18.2º(-6.1)     72%      157(SE)      1.6 km/h    1015.0 hpa     26.9º    0.0 mm
   28-05-2024    01:55      18.3º(----)     72%      157(SE)      3.2 km/h    1015.0 hpa     26.9º    0.0 mm
   28-05-2024    01:50      18.6º(----)     71%      180 (S)      1.6 km/h    1015.0 hpa     27.0º    0.0 mm
   28-05-2024    01:45      18.7º(----)     70%      180 (S)      3.2 km/h    1014.9 hpa     27.1º    0.0 mm
   28-05-2024    01:40      18.9º(----)     68%      180 (S)      1.6 km/h    1015.0 hpa     27.1º    0.0 mm
   28-05-2024    01:35      19.3º(----)     66%      180 (S)      1.6 km/h    1015.0 hpa     27.2º    0.0 mm
   28-05-2024    01:30      19.3º(----)     65%         -         0.0 km/h    1015.1 hpa     27.2º    0.0 mm
   28-05-2024    01:25      19.3º(----)     65%         -         0.0 km/h    1015.1 hpa     27.2º    0.0 mm
   28-05-2024    01:20      19.1º(----)     65%         -         0.0 km/h    1015.1 hpa     27.3º    0.0 mm
   28-05-2024    01:15      18.9º(----)     65%         -         0.0 km/h    1015.2 hpa     27.3º    0.0 mm
   28-05-2024    01:10      18.9º(----)     64%      180 (S)      1.6 km/h    1015.2 hpa     27.3º    0.0 mm
   28-05-2024    01:05      19.0º(----)     64%      180 (S)      3.2 km/h    1015.2 hpa     27.4º    0.0 mm
   28-05-2024    01:00      19.2º(----)     62%      180 (S)      1.6 km/h    1015.2 hpa     27.6º    0.0 mm
   28-05-2024    00:55      19.4º(----)     61%      180 (S)      1.6 km/h    1015.2 hpa     27.7º    0.0 mm
   28-05-2024    00:50      19.6º(----)     60%      180 (S)      1.6 km/h    1015.2 hpa     27.8º    0.0 mm
   28-05-2024    00:45      19.6º(----)     60%      180 (S)      1.6 km/h    1015.2 hpa     27.8º    0.0 mm
   28-05-2024    00:40      19.8º(----)     59%      180 (S)      1.6 km/h    1015.2 hpa     27.8º    0.0 mm
   28-05-2024    00:35      19.9º(----)     58%      202 (S)      1.6 km/h    1015.3 hpa     27.9º    0.0 mm
   28-05-2024    00:30      20.0º(----)     57%      202 (S)      1.6 km/h    1015.2 hpa     27.9º    0.0 mm
   28-05-2024    00:25      20.1º(----)     57%         -         0.0 km/h    1015.2 hpa     27.9º    0.0 mm
   28-05-2024    00:20      20.1º(----)     57%         -         0.0 km/h    1015.1 hpa     27.9º    0.0 mm
   28-05-2024    00:15      20.1º(----)     57%         -         0.0 km/h    1015.2 hpa     27.9º    0.0 mm
   28-05-2024    00:10      20.1º(----)     56%      202 (S)      1.6 km/h    1015.1 hpa     27.9º    0.0 mm
   28-05-2024    00:05      20.1º(----)     56%      202 (S)      1.6 km/h    1015.3 hpa     27.9º    0.0 mm
   28-05-2024    00:00      20.2º(----)     56%      202 (S)      4.8 km/h    1015.2 hpa     27.9º    0.0 mm